createdAt,value
2022-10-20T00:01:13.731Z,7.40
2022-10-20T00:03:41.618Z,7.40
2022-10-20T00:06:15.762Z,7.30
2022-10-20T00:08:45.356Z,7.20
2022-10-20T00:11:22.184Z,7.20
2022-10-20T00:13:52.543Z,7.20
2022-10-20T00:16:22.353Z,7.20
2022-10-20T00:18:49.657Z,7.20
2022-10-20T00:21:23.787Z,7.10
2022-10-20T00:23:50.993Z,7.10
2022-10-20T00:26:27.335Z,7.10
2022-10-20T00:28:56.866Z,7.10
2022-10-20T00:31:25.097Z,7.00
2022-10-20T00:33:56.695Z,7.00
2022-10-20T00:36:25.768Z,7.00
2022-10-20T00:38:58.633Z,7.00
2022-10-20T00:41:35.064Z,6.90
2022-10-20T00:44:41.262Z,6.90
2022-10-20T00:47:14.693Z,6.80
2022-10-20T00:49:41.656Z,6.80
2022-10-20T00:52:10.575Z,6.80
2022-10-20T00:54:37.707Z,6.80
2022-10-20T00:57:04.659Z,6.80
2022-10-20T00:59:35.369Z,6.80
2022-10-20T01:02:04.882Z,6.80
2022-10-20T01:04:31.781Z,6.70
2022-10-20T01:06:59.078Z,6.70
2022-10-20T01:09:25.916Z,6.70
2022-10-20T01:12:07.885Z,6.70
2022-10-20T01:14:59.278Z,6.70
2022-10-20T01:18:08.090Z,6.70
2022-10-20T01:20:49.979Z,6.60
2022-10-20T01:24:03.271Z,6.60
2022-10-20T01:26:48.188Z,6.60
2022-10-20T01:29:32.246Z,6.60
2022-10-20T01:32:07.741Z,6.60
2022-10-20T01:34:59.151Z,6.60
2022-10-20T01:37:48.350Z,6.60
2022-10-20T01:40:37.125Z,6.60
2022-10-20T01:43:12.542Z,6.60
2022-10-20T01:45:44.750Z,6.60
2022-10-20T01:48:14.449Z,6.60
2022-10-20T01:50:42.607Z,6.60
2022-10-20T01:53:10.942Z,6.50
2022-10-20T01:55:38.744Z,6.50
2022-10-20T01:58:32.611Z,6.50
2022-10-20T02:01:27.201Z,6.50
2022-10-20T02:04:01.520Z,6.60
2022-10-20T02:06:49.770Z,6.50
2022-10-20T02:09:23.543Z,6.50
2022-10-20T02:12:07.371Z,6.50
2022-10-20T02:14:35.457Z,6.40
2022-10-20T02:17:09.927Z,6.40
2022-10-20T02:19:41.109Z,6.40
2022-10-20T02:22:09.724Z,6.40
2022-10-20T02:24:39.230Z,6.40
2022-10-20T02:27:14.425Z,6.40
2022-10-20T02:29:54.626Z,6.40
2022-10-20T02:32:22.777Z,6.40
2022-10-20T02:34:49.471Z,6.40
2022-10-20T02:39:43.250Z,6.30
2022-10-20T02:42:10.195Z,6.30
2022-10-20T02:44:36.805Z,6.30
2022-10-20T02:47:03.594Z,6.20
2022-10-20T02:49:30.227Z,6.20
2022-10-20T02:51:56.847Z,6.20
2022-10-20T02:54:23.491Z,6.20
2022-10-20T02:56:50.162Z,6.20
2022-10-20T02:59:17.012Z,6.20
2022-10-20T03:01:44.299Z,6.20
2022-10-20T03:04:11.780Z,6.10
2022-10-20T03:06:38.957Z,6.10
2022-10-20T03:09:05.910Z,6.10
2022-10-20T03:11:34.149Z,6.10
2022-10-20T03:14:04.470Z,6.10
2022-10-20T03:16:36.167Z,6.10
2022-10-20T03:19:09.115Z,6.10
2022-10-20T03:21:39.691Z,6.10
2022-10-20T03:24:06.504Z,6.00
2022-10-20T03:26:33.341Z,6.00
2022-10-20T03:29:00.125Z,6.00
2022-10-20T03:31:26.768Z,6.00
2022-10-20T03:33:53.437Z,6.00
2022-10-20T03:36:20.105Z,6.00
2022-10-20T03:38:46.798Z,6.00
2022-10-20T03:41:14.480Z,6.00
2022-10-20T03:43:41.334Z,6.00
2022-10-20T03:46:11.222Z,6.00
2022-10-20T03:48:39.767Z,6.00
2022-10-20T03:51:08.012Z,6.00
2022-10-20T03:53:34.925Z,6.00
2022-10-20T03:56:10.714Z,5.90
2022-10-20T03:58:38.843Z,5.90
2022-10-20T04:01:06.174Z,5.90
2022-10-20T04:03:32.810Z,5.90
2022-10-20T04:06:00.521Z,5.90
2022-10-20T04:08:27.181Z,5.90
2022-10-20T04:10:53.851Z,5.90
2022-10-20T04:13:21.533Z,5.80
2022-10-20T04:15:48.204Z,5.80
2022-10-20T04:18:17.686Z,5.80
2022-10-20T04:20:44.826Z,5.80
2022-10-20T04:23:14.377Z,5.80
2022-10-20T04:25:44.630Z,5.80
2022-10-20T04:28:13.588Z,5.80
2022-10-20T04:30:41.325Z,5.80
2022-10-20T04:33:08.087Z,5.70
2022-10-20T04:35:34.759Z,5.70
2022-10-20T04:38:01.493Z,5.70
2022-10-20T04:40:28.196Z,5.70
2022-10-20T04:42:54.816Z,5.70
2022-10-20T04:45:21.531Z,5.70
2022-10-20T04:47:48.145Z,5.70
2022-10-20T04:50:14.764Z,5.70
2022-10-20T04:52:42.486Z,5.70
2022-10-20T04:55:09.475Z,5.60
2022-10-20T04:57:37.277Z,5.60
2022-10-20T05:00:05.908Z,5.60
2022-10-20T05:02:33.664Z,5.60
2022-10-20T05:05:00.700Z,5.60
2022-10-20T05:07:30.403Z,5.60
2022-10-20T05:09:57.067Z,5.60
2022-10-20T05:12:25.019Z,5.60
2022-10-20T05:14:52.873Z,5.50
2022-10-20T05:17:21.150Z,5.50
2022-10-20T05:19:50.065Z,5.50
2022-10-20T05:22:20.478Z,5.50
2022-10-20T05:24:47.199Z,5.50
2022-10-20T05:27:15.908Z,5.50
2022-10-20T05:29:43.608Z,5.50
2022-10-20T05:32:12.498Z,5.50
2022-10-20T05:34:42.718Z,5.50
2022-10-20T05:37:13.397Z,5.50
2022-10-20T05:39:43.504Z,5.50
2022-10-20T05:42:13.772Z,5.50
2022-10-20T05:44:42.997Z,5.50
2022-10-20T05:47:09.586Z,5.50
2022-10-20T05:49:36.246Z,5.40
2022-10-20T05:52:02.885Z,5.40
2022-10-20T05:54:29.540Z,5.30
2022-10-20T05:56:56.232Z,5.30
2022-10-20T05:59:22.950Z,5.30
2022-10-20T06:01:49.596Z,5.40
2022-10-20T06:04:23.432Z,5.30
2022-10-20T06:06:54.172Z,5.30
2022-10-20T06:09:22.136Z,5.30
2022-10-20T06:11:50.230Z,5.30
2022-10-20T06:14:17.911Z,5.40
2022-10-20T06:16:44.843Z,5.30
2022-10-20T06:19:12.273Z,5.40
2022-10-20T06:21:38.983Z,5.40
2022-10-20T06:24:06.775Z,5.40
2022-10-20T06:26:35.057Z,5.40
2022-10-20T06:29:04.565Z,5.40
2022-10-20T06:31:38.757Z,5.40
2022-10-20T06:34:07.350Z,5.30
2022-10-20T06:36:38.268Z,5.40
2022-10-20T06:39:06.544Z,5.40
2022-10-20T06:41:33.877Z,5.40
2022-10-20T06:44:00.482Z,5.40
2022-10-20T06:46:29.778Z,5.40
2022-10-20T06:48:58.741Z,5.40
2022-10-20T06:51:26.110Z,5.40
2022-10-20T06:53:53.423Z,5.50
2022-10-20T06:56:22.437Z,5.50
2022-10-20T06:58:51.286Z,5.50
2022-10-20T07:01:23.659Z,5.60
2022-10-20T07:03:52.622Z,5.60
2022-10-20T07:06:21.442Z,5.60
2022-10-20T07:08:48.562Z,5.70
2022-10-20T07:11:18.362Z,5.80
2022-10-20T07:13:45.579Z,5.80
2022-10-20T07:16:14.423Z,5.90
2022-10-20T07:18:41.559Z,5.90
2022-10-20T07:21:13.801Z,5.90
2022-10-20T07:23:42.279Z,6.00
2022-10-20T07:26:12.610Z,6.00
2022-10-20T07:28:43.178Z,6.00
2022-10-20T07:31:19.545Z,6.10
2022-10-20T07:34:00.867Z,6.10
2022-10-20T07:36:36.126Z,6.20
2022-10-20T07:39:06.458Z,6.30
2022-10-20T07:41:34.494Z,6.30
2022-10-20T07:44:01.599Z,6.30
2022-10-20T07:46:28.380Z,6.40
2022-10-20T07:48:57.291Z,6.40
2022-10-20T07:51:30.789Z,6.50
2022-10-20T07:54:17.382Z,6.50
2022-10-20T07:56:47.018Z,6.60
2022-10-20T07:59:13.764Z,6.60
2022-10-20T08:01:41.924Z,6.70
2022-10-20T08:04:09.825Z,6.70
2022-10-20T08:06:40.052Z,6.80
2022-10-20T08:09:09.354Z,6.90
2022-10-20T08:11:36.112Z,7.00
2022-10-20T08:14:02.825Z,7.00
2022-10-20T08:16:33.933Z,7.10
2022-10-20T08:21:48.366Z,7.20
2022-10-20T08:24:18.627Z,7.30
2022-10-20T08:26:46.707Z,7.40
2022-10-20T08:29:13.784Z,7.40
2022-10-20T08:31:45.971Z,7.60
2022-10-20T08:34:15.021Z,7.60
2022-10-20T08:36:42.560Z,7.70
2022-10-20T08:39:12.323Z,7.80
2022-10-20T08:44:35.719Z,8.00
2022-10-20T08:47:04.675Z,8.00
2022-10-20T08:49:33.818Z,8.10
2022-10-20T08:52:02.095Z,8.20
2022-10-20T08:54:29.337Z,8.20
2022-10-20T08:56:58.513Z,8.30
2022-10-20T08:59:39.676Z,8.30
2022-10-20T09:02:16.627Z,8.40
2022-10-20T09:04:49.611Z,8.50
2022-10-20T09:07:28.369Z,8.50
2022-10-20T09:10:02.666Z,8.60
2022-10-20T09:12:32.134Z,8.60
2022-10-20T09:14:58.850Z,8.70
2022-10-20T09:17:25.765Z,8.70
2022-10-20T09:19:55.914Z,8.80
2022-10-20T09:22:24.670Z,8.80
2022-10-20T09:24:52.229Z,8.80
2022-10-20T09:27:38.243Z,8.90
2022-10-20T09:30:31.402Z,9.00
2022-10-20T09:33:00.334Z,9.10
2022-10-20T09:35:33.729Z,9.10
2022-10-20T09:38:21.505Z,9.20
2022-10-20T09:41:14.754Z,9.30
2022-10-20T09:43:58.760Z,9.40
2022-10-20T09:46:32.056Z,9.40
2022-10-20T09:48:59.050Z,9.40
2022-10-20T09:51:32.139Z,9.50
2022-10-20T09:54:07.319Z,9.50
2022-10-20T09:56:37.978Z,9.70
2022-10-20T09:59:18.540Z,9.70
2022-10-20T10:02:00.482Z,9.80
2022-10-20T10:04:54.442Z,9.80
2022-10-20T10:07:26.909Z,9.90
2022-10-20T10:09:58.902Z,10.00
2022-10-20T10:12:27.987Z,10.00
2022-10-20T10:14:57.462Z,10.10
2022-10-20T10:17:43.118Z,10.10
2022-10-20T10:20:16.076Z,10.20
2022-10-20T10:22:44.521Z,10.20
2022-10-20T10:25:27.467Z,10.30
2022-10-20T10:28:19.628Z,10.40
2022-10-20T10:30:48.255Z,10.40
2022-10-20T10:33:26.514Z,10.50
2022-10-20T10:35:53.248Z,10.60
2022-10-20T10:38:20.414Z,10.60
2022-10-20T10:41:15.767Z,10.70
2022-10-20T10:44:02.826Z,10.80
2022-10-20T10:46:48.377Z,10.90
2022-10-20T10:49:50.157Z,10.90
2022-10-20T10:52:40.986Z,10.90
2022-10-20T10:55:47.830Z,11.00
2022-10-20T10:58:24.895Z,11.10
2022-10-20T11:01:35.731Z,11.10
2022-10-20T11:04:40.939Z,11.20
2022-10-20T11:07:21.668Z,11.20
2022-10-20T11:10:30.705Z,11.30
2022-10-20T11:13:54.074Z,11.30
2022-10-20T11:17:02.595Z,11.40
2022-10-20T11:19:57.747Z,11.40
2022-10-20T11:22:55.318Z,11.40
2022-10-20T11:25:33.803Z,11.50
2022-10-20T11:28:02.119Z,11.60
2022-10-20T11:30:30.241Z,11.60
2022-10-20T11:33:14.474Z,11.60
2022-10-20T11:35:54.045Z,11.80
2022-10-20T11:38:41.207Z,11.80
2022-10-20T11:44:32.129Z,12.00
2022-10-20T11:47:03.599Z,12.00
2022-10-20T11:49:34.026Z,12.10
2022-10-20T11:52:47.827Z,12.20
2022-10-20T11:55:32.385Z,12.30
2022-10-20T11:58:35.436Z,12.30
2022-10-20T12:01:21.507Z,12.40
2022-10-20T12:04:15.449Z,12.50
2022-10-20T12:06:54.678Z,12.60
2022-10-20T12:09:48.950Z,12.70
2022-10-20T12:12:24.319Z,12.80
2022-10-20T12:14:59.439Z,12.90
2022-10-20T12:17:36.064Z,13.10
2022-10-20T12:20:23.288Z,13.30
2022-10-20T12:22:55.809Z,13.30
2022-10-20T12:25:36.018Z,13.50
2022-10-20T12:28:20.974Z,13.50
2022-10-20T12:30:58.756Z,13.70
2022-10-20T12:33:52.151Z,13.70
2022-10-20T12:36:19.303Z,13.90
2022-10-20T12:39:17.308Z,14.00
2022-10-20T12:42:03.742Z,14.10
2022-10-20T12:44:39.536Z,14.20
2022-10-20T12:47:09.202Z,14.30
2022-10-20T12:49:53.412Z,14.50
2022-10-20T12:52:26.419Z,14.70
2022-10-20T12:54:59.505Z,14.70
2022-10-20T12:57:38.703Z,14.80
2022-10-20T13:00:06.753Z,15.00
2022-10-20T13:02:45.278Z,15.00
2022-10-20T13:05:14.694Z,15.20
2022-10-20T13:07:47.642Z,15.30
2022-10-20T13:10:40.790Z,15.30
2022-10-20T13:13:10.251Z,15.50
2022-10-20T13:15:44.621Z,15.60
2022-10-20T13:18:16.250Z,15.70
2022-10-20T13:21:04.402Z,15.80
2022-10-20T13:23:39.556Z,15.90
2022-10-20T13:26:43.215Z,15.90
2022-10-20T13:29:28.163Z,15.80
2022-10-20T13:32:18.864Z,15.90
2022-10-20T13:35:17.873Z,16.00
2022-10-20T13:37:56.534Z,16.00
2022-10-20T13:41:03.669Z,16.10
2022-10-20T13:43:36.255Z,16.20
2022-10-20T13:46:18.758Z,16.30
2022-10-20T13:49:17.706Z,16.20
2022-10-20T13:51:48.039Z,16.30
2022-10-20T13:54:32.397Z,16.20
2022-10-20T13:56:59.624Z,16.20
2022-10-20T13:59:28.717Z,16.20
2022-10-20T14:02:01.562Z,16.10
2022-10-20T14:04:35.934Z,15.90
2022-10-20T14:07:06.373Z,15.80
2022-10-20T14:09:34.472Z,15.80
2022-10-20T14:12:17.663Z,15.70
2022-10-20T14:14:45.610Z,15.60
2022-10-20T14:17:21.024Z,15.40
2022-10-20T14:19:47.703Z,15.50
2022-10-20T14:22:22.100Z,15.50
2022-10-20T14:24:54.721Z,15.40
2022-10-20T14:27:27.828Z,15.40
2022-10-20T14:29:55.694Z,15.30
2022-10-20T14:32:29.672Z,15.20
2022-10-20T14:35:16.733Z,15.10
2022-10-20T14:37:50.756Z,15.10
2022-10-20T14:40:24.144Z,15.00
2022-10-20T14:42:51.550Z,15.00
2022-10-20T14:45:21.053Z,15.00
2022-10-20T14:47:48.550Z,15.00
2022-10-20T14:50:32.002Z,15.00
2022-10-20T14:53:28.629Z,15.10
2022-10-20T14:55:56.976Z,15.00
2022-10-20T14:58:31.043Z,14.90
2022-10-20T15:01:34.498Z,14.80
2022-10-20T15:04:04.095Z,14.70
2022-10-20T15:06:31.081Z,14.50
2022-10-20T15:08:57.880Z,14.40
2022-10-20T15:11:26.772Z,14.30
2022-10-20T15:13:55.739Z,14.20
2022-10-20T15:16:34.443Z,14.10
2022-10-20T15:19:27.188Z,14.00
2022-10-20T15:22:00.615Z,13.90
2022-10-20T15:24:28.193Z,13.80
2022-10-20T15:26:55.967Z,13.60
2022-10-20T15:29:24.482Z,13.50
2022-10-20T15:31:51.337Z,13.40
2022-10-20T15:34:22.052Z,13.30
2022-10-20T15:36:51.129Z,13.10
2022-10-20T15:39:18.187Z,13.10
2022-10-20T15:41:45.670Z,13.00
2022-10-20T15:44:22.344Z,12.90
2022-10-20T15:46:51.548Z,12.80
2022-10-20T15:49:20.305Z,12.70
2022-10-20T15:51:49.153Z,12.60
2022-10-20T15:54:19.625Z,12.50
2022-10-20T15:56:48.019Z,12.40
2022-10-20T15:59:14.954Z,12.30
2022-10-20T16:01:42.626Z,12.30
2022-10-20T16:04:22.656Z,12.20
2022-10-20T16:06:50.799Z,12.20
2022-10-20T16:09:18.062Z,12.00
2022-10-20T16:11:45.149Z,11.90
2022-10-20T16:14:12.627Z,11.90
2022-10-20T16:16:39.384Z,11.80
2022-10-20T16:19:06.141Z,11.80
2022-10-20T16:21:33.997Z,11.70
2022-10-20T16:24:00.820Z,11.60
2022-10-20T16:26:31.004Z,11.50
2022-10-20T16:28:59.791Z,11.40
2022-10-20T16:31:27.533Z,11.40
2022-10-20T16:33:56.608Z,11.30
2022-10-20T16:36:24.559Z,11.20
2022-10-20T16:38:55.808Z,11.20
2022-10-20T16:41:24.930Z,11.10
2022-10-20T16:44:02.199Z,11.10
2022-10-20T16:46:30.067Z,11.00
2022-10-20T16:48:59.722Z,11.00
2022-10-20T16:51:26.589Z,10.90
2022-10-20T16:54:00.805Z,10.90
2022-10-20T16:56:30.161Z,10.80
2022-10-20T16:58:56.810Z,10.70
2022-10-20T17:01:23.954Z,10.70
2022-10-20T17:03:52.664Z,10.70
2022-10-20T17:06:22.576Z,10.60
2022-10-20T17:08:49.583Z,10.60
2022-10-20T17:11:18.852Z,10.50
2022-10-20T17:13:45.971Z,10.50
2022-10-20T17:16:20.073Z,10.50
2022-10-20T17:18:48.225Z,10.40
2022-10-20T17:21:16.067Z,10.40
2022-10-20T17:23:44.370Z,10.30
2022-10-20T17:26:19.930Z,10.30
2022-10-20T17:28:46.758Z,10.20
2022-10-20T17:33:43.894Z,10.10
2022-10-20T17:36:11.222Z,10.10
2022-10-20T17:38:38.380Z,10.10
2022-10-20T17:41:09.051Z,10.10
2022-10-20T17:43:35.891Z,10.00
2022-10-20T17:46:14.741Z,10.00
2022-10-20T17:48:41.491Z,9.90
2022-10-20T17:51:14.778Z,9.90
2022-10-20T17:53:44.919Z,9.90
2022-10-20T17:56:14.217Z,9.80
2022-10-20T17:58:45.715Z,9.80
2022-10-20T18:01:18.536Z,9.70
2022-10-20T18:03:46.592Z,9.70
2022-10-20T18:06:14.592Z,9.70
2022-10-20T18:08:41.716Z,9.70
2022-10-20T18:11:29.655Z,9.60
2022-10-20T18:13:57.299Z,9.60
2022-10-20T18:16:24.172Z,9.60
2022-10-20T18:18:51.058Z,9.60
2022-10-20T18:21:19.612Z,9.50
2022-10-20T18:23:46.744Z,9.50
2022-10-20T18:26:19.168Z,9.50
2022-10-20T18:28:48.519Z,9.50
2022-10-20T18:31:18.604Z,9.50
2022-10-20T18:33:49.024Z,9.50
2022-10-20T18:36:17.286Z,9.40
2022-10-20T18:38:45.365Z,9.40
2022-10-20T18:41:28.484Z,9.40
2022-10-20T18:44:00.582Z,9.40
2022-10-20T18:46:28.924Z,9.30
2022-10-20T18:48:56.382Z,9.30
2022-10-20T18:51:24.047Z,9.20
2022-10-20T18:53:56.057Z,9.20
2022-10-20T18:56:25.103Z,9.20
2022-10-20T18:58:54.164Z,9.20
2022-10-20T19:01:23.896Z,9.20
2022-10-20T19:03:52.495Z,9.20
2022-10-20T19:06:32.145Z,9.10
2022-10-20T19:09:03.300Z,9.10
2022-10-20T19:11:33.582Z,9.10
2022-10-20T19:14:03.118Z,9.10
2022-10-20T19:16:33.963Z,9.10
2022-10-20T19:19:07.254Z,9.00
2022-10-20T19:21:35.852Z,9.00
2022-10-20T19:24:13.394Z,9.00
2022-10-20T19:27:02.172Z,9.00
2022-10-20T19:29:35.212Z,9.00
2022-10-20T19:32:02.785Z,9.00
2022-10-20T19:34:33.328Z,9.00
2022-10-20T19:37:00.863Z,9.00
2022-10-20T19:39:30.688Z,9.00
2022-10-20T19:41:59.234Z,8.90
2022-10-20T19:44:26.151Z,8.90
2022-10-20T19:46:54.662Z,8.90
2022-10-20T19:49:23.964Z,9.00
2022-10-20T19:51:52.332Z,9.00
2022-10-20T19:54:22.583Z,9.00
2022-10-20T19:56:50.439Z,9.00
2022-10-20T19:59:17.088Z,8.90
2022-10-20T20:01:46.753Z,8.90
2022-10-20T20:04:16.487Z,8.90
2022-10-20T20:06:44.316Z,8.90
2022-10-20T20:09:12.914Z,8.90
2022-10-20T20:11:41.591Z,8.80
2022-10-20T20:14:18.212Z,8.80
2022-10-20T20:16:46.751Z,8.80
2022-10-20T20:19:15.102Z,8.80
2022-10-20T20:21:45.458Z,8.70
2022-10-20T20:24:14.133Z,8.70
2022-10-20T20:26:43.150Z,8.70
2022-10-20T20:29:10.996Z,8.60
2022-10-20T20:31:37.626Z,8.70
2022-10-20T20:34:09.495Z,8.60
2022-10-20T20:36:37.605Z,8.60
2022-10-20T20:39:05.520Z,8.60
2022-10-20T20:41:35.918Z,8.60
2022-10-20T20:44:08.459Z,8.60
2022-10-20T20:46:36.694Z,8.60
2022-10-20T20:49:04.778Z,8.60
2022-10-20T20:51:35.040Z,8.60
2022-10-20T20:54:03.542Z,8.60
2022-10-20T20:56:30.690Z,8.60
2022-10-20T20:59:00.525Z,8.60
2022-10-20T21:01:37.163Z,8.60
2022-10-20T21:04:07.029Z,8.60
2022-10-20T21:07:00.678Z,8.60
2022-10-20T21:09:25.574Z,8.60
2022-10-20T21:11:52.196Z,8.60
2022-10-20T21:14:19.070Z,8.60
2022-10-20T21:16:46.216Z,8.60
2022-10-20T21:19:13.076Z,8.60
2022-10-20T21:21:43.654Z,8.70
2022-10-20T21:24:12.517Z,8.70
2022-10-20T21:26:39.727Z,8.70
2022-10-20T21:29:06.435Z,8.70
2022-10-20T21:31:34.339Z,8.70
2022-10-20T21:34:04.855Z,8.70
2022-10-20T21:36:35.046Z,8.70
2022-10-20T21:39:05.726Z,8.70
2022-10-20T21:41:35.786Z,8.80
2022-10-20T21:44:05.420Z,8.80
2022-10-20T21:46:40.241Z,8.80
2022-10-20T21:49:14.700Z,8.80
2022-10-20T21:51:45.155Z,8.80
2022-10-20T21:54:18.288Z,8.80
2022-10-20T21:56:45.606Z,8.80
2022-10-20T21:59:19.120Z,8.80
2022-10-20T22:01:49.855Z,8.80
2022-10-20T22:04:18.657Z,8.80
2022-10-20T22:06:48.089Z,8.90
2022-10-20T22:09:16.898Z,8.90
2022-10-20T22:11:49.501Z,9.00
2022-10-20T22:14:17.885Z,9.00
2022-10-20T22:16:48.888Z,9.00
2022-10-20T22:19:20.646Z,9.10
2022-10-20T22:21:48.914Z,9.10
2022-10-20T22:24:16.516Z,9.10
2022-10-20T22:26:43.317Z,9.10
2022-10-20T22:29:10.613Z,9.10
2022-10-20T22:31:38.994Z,9.20
2022-10-20T22:34:06.044Z,9.20
2022-10-20T22:36:32.673Z,9.20
2022-10-20T22:38:59.374Z,9.20
2022-10-20T22:41:26.171Z,9.10
2022-10-20T22:43:52.871Z,9.10
2022-10-20T22:46:19.669Z,9.10
2022-10-20T22:48:46.382Z,9.10
2022-10-20T22:51:13.720Z,9.10
2022-10-20T22:53:42.337Z,9.10
2022-10-20T22:56:15.590Z,9.10
2022-10-20T22:58:42.963Z,9.10
2022-10-20T23:01:16.288Z,9.00
2022-10-20T23:03:43.382Z,9.00
2022-10-20T23:06:12.511Z,9.00
2022-10-20T23:08:41.503Z,9.00
2022-10-20T23:11:08.725Z,9.00
2022-10-20T23:13:35.342Z,9.00
2022-10-20T23:16:02.311Z,9.00
2022-10-20T23:18:29.079Z,9.00
2022-10-20T23:20:58.116Z,9.00
2022-10-20T23:23:25.625Z,9.00
2022-10-20T23:25:52.230Z,8.90
2022-10-20T23:28:19.970Z,8.90
2022-10-20T23:30:49.190Z,8.90
2022-10-20T23:33:16.357Z,8.90
2022-10-20T23:35:45.007Z,8.90
2022-10-20T23:38:11.651Z,8.80
2022-10-20T23:40:38.282Z,8.80
2022-10-20T23:43:04.869Z,8.80
2022-10-20T23:45:34.095Z,8.80
2022-10-20T23:48:03.620Z,8.80
2022-10-20T23:50:30.330Z,8.80
2022-10-20T23:52:57.226Z,8.80
2022-10-20T23:55:24.072Z,8.80
2022-10-20T23:57:50.916Z,8.80
